createdAt,value
2023-04-02T00:00:21.265Z,90.29
2023-04-02T00:03:10.731Z,89.66
2023-04-02T00:05:49.965Z,89.55
2023-04-02T00:08:29.429Z,89.94
2023-04-02T00:10:59.470Z,89.90
2023-04-02T00:13:33.491Z,89.83
2023-04-02T00:16:03.406Z,89.00
2023-04-02T00:18:30.959Z,88.95
2023-04-02T00:21:28.328Z,89.23
2023-04-02T00:23:56.572Z,88.52
2023-04-02T00:26:24.318Z,88.46
2023-04-02T00:28:53.925Z,88.37
2023-04-02T00:31:21.146Z,89.63
2023-04-02T00:33:49.512Z,89.06
2023-04-02T00:36:19.964Z,89.01
2023-04-02T00:38:48.716Z,89.35
2023-04-02T00:41:22.318Z,88.56
2023-04-02T00:43:52.142Z,89.18
2023-04-02T00:46:24.093Z,88.22
2023-04-02T00:48:57.681Z,88.42
2023-04-02T00:51:29.183Z,88.48
2023-04-02T00:54:00.358Z,88.69
2023-04-02T00:56:45.191Z,88.95
2023-04-02T00:59:30.124Z,88.09
2023-04-02T01:02:01.594Z,88.80
2023-04-02T01:04:34.928Z,88.31
2023-04-02T01:07:06.361Z,87.80
2023-04-02T01:09:57.153Z,88.32
2023-04-02T01:12:42.347Z,88.68
2023-04-02T01:15:12.587Z,88.27
2023-04-02T01:18:02.734Z,89.07
2023-04-02T01:20:51.977Z,89.01
2023-04-02T01:23:28.259Z,88.17
2023-04-02T01:26:08.696Z,88.38
2023-04-02T01:29:14.094Z,88.46
2023-04-02T01:31:41.450Z,87.97
2023-04-02T01:34:11.693Z,88.55
2023-04-02T01:36:56.194Z,88.48
2023-04-02T01:40:07.797Z,88.10
2023-04-02T01:42:54.443Z,88.02
2023-04-02T01:45:22.793Z,88.61
2023-04-02T01:47:50.459Z,87.95
2023-04-02T01:50:31.485Z,87.62
2023-04-02T01:53:00.377Z,88.46
2023-04-02T01:55:44.695Z,87.96
2023-04-02T01:58:14.081Z,87.49
2023-04-02T02:00:53.158Z,87.53
2023-04-02T02:03:20.706Z,87.48
2023-04-02T02:05:47.511Z,87.56
2023-04-02T02:08:38.668Z,87.97
2023-04-02T02:11:08.357Z,88.04
2023-04-02T02:13:34.785Z,87.43
2023-04-02T02:16:04.433Z,87.59
2023-04-02T02:18:32.182Z,88.10
2023-04-02T02:21:01.037Z,87.65
2023-04-02T02:23:29.688Z,87.11
2023-04-02T02:25:56.454Z,87.54
2023-04-02T02:28:31.221Z,88.13
2023-04-02T02:31:01.432Z,88.55
2023-04-02T02:33:44.457Z,88.15
2023-04-02T02:36:23.096Z,87.51
2023-04-02T02:39:00.994Z,87.95
2023-04-02T02:41:46.795Z,87.39
2023-04-02T02:44:20.866Z,87.72
2023-04-02T02:47:19.542Z,87.87
2023-04-02T02:49:50.529Z,87.21
2023-04-02T02:52:26.745Z,87.56
2023-04-02T02:55:18.397Z,87.13
2023-04-02T02:58:06.927Z,86.88
2023-04-02T03:00:40.941Z,86.66
2023-04-02T03:03:14.447Z,86.76
2023-04-02T03:05:41.798Z,87.33
2023-04-02T03:08:37.074Z,86.95
2023-04-02T03:11:26.686Z,87.52
2023-04-02T03:14:00.868Z,86.77
2023-04-02T03:16:34.824Z,87.44
2023-04-02T03:19:04.272Z,87.56
2023-04-02T03:21:42.886Z,87.39
2023-04-02T03:24:19.707Z,87.33
2023-04-02T03:26:55.245Z,87.45
2023-04-02T03:29:30.701Z,87.87
2023-04-02T03:32:06.041Z,87.81
2023-04-02T03:34:42.750Z,87.79
2023-04-02T03:37:17.338Z,87.77
2023-04-02T03:39:51.219Z,88.59
2023-04-02T03:42:26.349Z,88.40
2023-04-02T03:45:03.305Z,88.09
2023-04-02T03:47:36.355Z,88.60
2023-04-02T03:50:27.772Z,88.05
2023-04-02T03:53:04.678Z,88.18
2023-04-02T03:55:35.499Z,88.60
2023-04-02T03:58:16.486Z,88.51
2023-04-02T04:00:59.553Z,88.11
2023-04-02T04:03:36.812Z,88.61
2023-04-02T04:06:10.479Z,88.56
2023-04-02T04:08:50.338Z,88.39
2023-04-02T04:11:22.723Z,88.40
2023-04-02T04:13:54.438Z,88.81
2023-04-02T04:16:32.385Z,88.57
2023-04-02T04:19:14.868Z,88.27
2023-04-02T04:21:45.084Z,89.21
2023-04-02T04:24:24.083Z,88.54
2023-04-02T04:27:17.100Z,88.55
2023-04-02T04:29:54.137Z,88.96
2023-04-02T04:32:32.036Z,89.21
2023-04-02T04:35:22.550Z,89.47
2023-04-02T04:37:59.159Z,89.22
2023-04-02T04:40:32.416Z,88.84
2023-04-02T04:43:12.404Z,89.04
2023-04-02T04:45:51.656Z,88.38
2023-04-02T04:48:36.322Z,88.99
2023-04-02T04:51:19.401Z,88.45
2023-04-02T04:53:48.358Z,88.98
2023-04-02T04:56:21.467Z,89.39
2023-04-02T04:59:20.471Z,89.51
2023-04-02T05:02:06.848Z,88.65
2023-04-02T05:04:40.200Z,89.51
2023-04-02T05:07:29.347Z,89.49
2023-04-02T05:10:02.059Z,89.65
2023-04-02T05:13:01.855Z,89.36
2023-04-02T05:15:43.716Z,89.30
2023-04-02T05:18:20.957Z,88.70
2023-04-02T05:21:00.267Z,89.00
2023-04-02T05:23:51.305Z,88.75
2023-04-02T05:26:29.650Z,89.02
2023-04-02T05:29:07.673Z,90.01
2023-04-02T05:31:45.413Z,88.97
2023-04-02T05:34:14.549Z,88.96
2023-04-02T05:36:41.130Z,88.95
2023-04-02T05:39:11.208Z,89.22
2023-04-02T05:41:47.546Z,89.25
2023-04-02T05:44:34.101Z,89.76
2023-04-02T05:47:23.060Z,88.80
2023-04-02T05:50:16.972Z,89.48
2023-04-02T05:52:52.040Z,89.02
2023-04-02T05:55:19.518Z,88.61
2023-04-02T05:58:10.434Z,88.90
2023-04-02T06:00:39.938Z,88.74
2023-04-02T06:03:28.482Z,89.15
2023-04-02T06:06:01.174Z,89.22
2023-04-02T06:08:36.279Z,89.30
2023-04-02T06:11:11.544Z,89.48
2023-04-02T06:13:40.359Z,89.20
2023-04-02T06:16:10.058Z,88.84
2023-04-02T06:18:36.914Z,88.58
2023-04-02T06:21:05.399Z,89.34
2023-04-02T06:24:02.419Z,88.84
2023-04-02T06:26:37.968Z,89.03
2023-04-02T06:29:17.959Z,88.80
2023-04-02T06:31:58.836Z,88.75
2023-04-02T06:34:28.450Z,89.12
2023-04-02T06:37:27.293Z,88.30
2023-04-02T06:40:00.907Z,88.57
2023-04-02T06:42:36.457Z,89.03
2023-04-02T06:45:29.763Z,87.98
2023-04-02T06:48:31.615Z,88.23
2023-04-02T06:51:04.227Z,88.25
2023-04-02T06:53:44.076Z,88.57
2023-04-02T06:56:32.226Z,88.65
2023-04-02T06:58:59.798Z,88.63
2023-04-02T07:01:30.736Z,87.81
2023-04-02T07:03:59.339Z,88.39
2023-04-02T07:06:45.412Z,88.56
2023-04-02T07:09:13.822Z,88.37
2023-04-02T07:11:45.993Z,88.79
2023-04-02T07:14:13.559Z,88.09
2023-04-02T07:16:42.710Z,88.84
2023-04-02T07:19:21.171Z,88.29
2023-04-02T07:21:50.476Z,88.63
2023-04-02T07:24:18.983Z,88.92
2023-04-02T07:26:48.063Z,88.58
2023-04-02T07:29:16.149Z,89.08
2023-04-02T07:31:42.971Z,89.38
2023-04-02T07:34:10.218Z,89.22
2023-04-02T07:36:36.782Z,90.08
2023-04-02T07:39:03.913Z,90.14
2023-04-02T07:41:30.339Z,90.78
2023-04-02T07:43:56.754Z,90.99
2023-04-02T07:46:23.411Z,90.98
2023-04-02T07:48:49.873Z,91.89
2023-04-02T07:51:18.179Z,91.33
2023-04-02T07:53:45.322Z,91.31
2023-04-02T07:56:17.986Z,91.34
2023-04-02T07:58:44.778Z,91.37
2023-04-02T08:01:21.154Z,92.09
2023-04-02T08:03:47.939Z,92.09
2023-04-02T08:06:14.485Z,92.01
2023-04-02T08:08:41.148Z,91.15
2023-04-02T08:11:08.555Z,91.18
2023-04-02T08:13:35.675Z,90.47
2023-04-02T08:16:03.254Z,90.41
2023-04-02T08:18:30.394Z,89.97
2023-04-02T08:20:57.240Z,89.56
2023-04-02T08:23:24.253Z,89.43
2023-04-02T08:25:51.384Z,89.04
2023-04-02T08:28:17.822Z,88.52
2023-04-02T08:30:44.491Z,88.39
2023-04-02T08:33:11.435Z,88.36
2023-04-02T08:35:38.076Z,88.15
2023-04-02T08:38:04.771Z,87.78
2023-04-02T08:40:35.738Z,87.32
2023-04-02T08:43:39.035Z,86.91
2023-04-02T08:46:09.407Z,86.79
2023-04-02T08:48:42.601Z,86.61
2023-04-02T08:51:22.593Z,86.06
2023-04-02T08:53:50.341Z,85.82
2023-04-02T08:56:27.468Z,85.60
2023-04-02T08:58:56.416Z,85.55
2023-04-02T09:01:49.529Z,85.81
2023-04-02T09:04:23.215Z,85.43
2023-04-02T09:06:53.539Z,85.32
2023-04-02T09:09:22.143Z,85.00
2023-04-02T09:12:28.736Z,84.29
2023-04-02T09:15:20.592Z,84.04
2023-04-02T09:17:54.246Z,83.73
2023-04-02T09:20:27.669Z,83.06
2023-04-02T09:22:56.135Z,83.12
2023-04-02T09:25:32.280Z,83.41
2023-04-02T09:28:04.979Z,83.24
2023-04-02T09:30:31.672Z,82.94
2023-04-02T09:33:07.517Z,82.21
2023-04-02T09:35:54.941Z,81.91
2023-04-02T09:38:31.410Z,82.05
2023-04-02T09:41:18.522Z,81.99
2023-04-02T09:43:45.119Z,82.00
2023-04-02T09:46:24.141Z,81.53
2023-04-02T09:48:58.133Z,81.71
2023-04-02T09:51:28.106Z,80.87
2023-04-02T09:54:03.403Z,80.63
2023-04-02T09:56:37.329Z,80.89
2023-04-02T09:59:06.693Z,81.21
2023-04-02T10:01:35.861Z,80.95
2023-04-02T10:04:04.811Z,80.98
2023-04-02T10:06:33.482Z,80.60
2023-04-02T10:09:30.672Z,80.67
2023-04-02T10:11:58.342Z,80.21
2023-04-02T10:14:35.378Z,79.10
2023-04-02T10:17:13.505Z,78.91
2023-04-02T10:19:47.238Z,79.25
2023-04-02T10:22:17.612Z,78.66
2023-04-02T10:24:44.266Z,78.87
2023-04-02T10:27:26.618Z,78.39
2023-04-02T10:30:19.851Z,78.50
2023-04-02T10:33:01.038Z,78.49
2023-04-02T10:35:36.615Z,78.71
2023-04-02T10:38:20.480Z,78.58
2023-04-02T10:41:00.557Z,77.54
2023-04-02T10:43:47.252Z,77.04
2023-04-02T10:46:35.468Z,77.14
2023-04-02T10:49:24.750Z,76.67
2023-04-02T10:52:05.241Z,75.84
2023-04-02T10:54:49.644Z,74.83
2023-04-02T10:57:38.025Z,73.73
2023-04-02T11:00:20.969Z,73.41
2023-04-02T11:03:02.745Z,72.72
2023-04-02T11:05:44.088Z,72.35
2023-04-02T11:08:20.099Z,72.08
2023-04-02T11:10:51.099Z,72.33
2023-04-02T11:13:56.131Z,71.64
2023-04-02T11:16:23.476Z,71.84
2023-04-02T11:19:10.385Z,71.90
2023-04-02T11:21:51.089Z,71.64
2023-04-02T11:24:31.530Z,72.07
2023-04-02T11:27:10.225Z,73.35
2023-04-02T11:29:49.989Z,73.11
2023-04-02T11:32:24.971Z,72.50
2023-04-02T11:35:05.121Z,72.26
2023-04-02T11:37:45.674Z,72.31
2023-04-02T11:40:12.119Z,72.22
2023-04-02T11:42:49.131Z,71.53
2023-04-02T11:45:25.958Z,72.23
2023-04-02T11:48:01.424Z,72.45
2023-04-02T11:50:31.736Z,72.58
2023-04-02T11:53:02.643Z,71.97
2023-04-02T11:55:34.404Z,71.53
2023-04-02T11:58:26.053Z,72.02
2023-04-02T12:01:11.712Z,71.83
2023-04-02T12:04:17.242Z,71.03
2023-04-02T12:06:49.710Z,71.27
2023-04-02T12:09:27.894Z,71.41
2023-04-02T12:12:15.551Z,70.91
2023-04-02T12:14:47.073Z,70.63
2023-04-02T12:17:30.513Z,70.54
2023-04-02T12:20:22.612Z,70.45
2023-04-02T12:22:52.389Z,69.81
2023-04-02T12:25:18.740Z,70.39
2023-04-02T12:27:48.100Z,70.38
2023-04-02T12:30:23.093Z,70.81
2023-04-02T12:32:50.321Z,71.53
2023-04-02T12:35:36.378Z,71.93
2023-04-02T12:38:02.850Z,71.97
2023-04-02T12:40:29.244Z,72.16
2023-04-02T12:42:55.956Z,72.20
2023-04-02T12:45:25.690Z,72.36
2023-04-02T12:47:53.715Z,72.15
2023-04-02T12:50:22.226Z,71.69
2023-04-02T12:52:54.996Z,71.53
2023-04-02T12:55:24.298Z,71.53
2023-04-02T12:57:59.322Z,72.21
2023-04-02T13:00:25.754Z,72.41
2023-04-02T13:03:16.851Z,73.11
2023-04-02T13:06:04.087Z,73.68
2023-04-02T13:08:41.698Z,73.84
2023-04-02T13:11:08.256Z,74.17
2023-04-02T13:13:37.627Z,74.16
2023-04-02T13:16:09.997Z,74.32
2023-04-02T13:18:38.221Z,75.02
2023-04-02T13:21:28.875Z,74.96
2023-04-02T13:23:55.596Z,75.19
2023-04-02T13:26:24.554Z,74.68
2023-04-02T13:29:09.372Z,75.06
2023-04-02T13:31:35.895Z,75.06
2023-04-02T13:34:02.384Z,75.81
2023-04-02T13:36:29.464Z,76.50
2023-04-02T13:38:56.376Z,76.95
2023-04-02T13:41:26.371Z,77.23
2023-04-02T13:44:00.221Z,77.05
2023-04-02T13:46:29.346Z,77.72
2023-04-02T13:48:56.769Z,77.47
2023-04-02T13:51:44.600Z,77.45
2023-04-02T13:54:35.808Z,77.53
2023-04-02T13:57:02.384Z,77.78
2023-04-02T13:59:28.936Z,78.52
2023-04-02T14:01:59.427Z,78.89
2023-04-02T14:04:33.247Z,79.53
2023-04-02T14:07:21.598Z,79.71
2023-04-02T14:10:14.803Z,80.87
2023-04-02T14:13:02.631Z,81.06
2023-04-02T14:15:52.654Z,81.21
2023-04-02T14:18:36.524Z,81.55
2023-04-02T14:21:27.583Z,81.21
2023-04-02T14:23:56.768Z,81.15
2023-04-02T14:26:32.749Z,81.15
2023-04-02T14:29:11.333Z,81.16
2023-04-02T14:32:02.530Z,81.73
2023-04-02T14:34:42.847Z,81.82
2023-04-02T14:37:20.778Z,82.17
2023-04-02T14:40:08.829Z,82.71
2023-04-02T14:42:51.987Z,82.88
2023-04-02T14:45:27.171Z,83.33
2023-04-02T14:48:01.091Z,84.11
2023-04-02T14:50:37.397Z,84.76
2023-04-02T14:53:23.964Z,84.72
2023-04-02T14:55:52.631Z,85.22
2023-04-02T14:58:25.967Z,85.81
2023-04-02T15:01:02.695Z,86.00
2023-04-02T15:03:37.450Z,86.54
2023-04-02T15:06:11.940Z,86.87
2023-04-02T15:08:46.788Z,87.23
2023-04-02T15:11:33.084Z,87.16
2023-04-02T15:14:06.807Z,87.28
2023-04-02T15:16:36.204Z,87.69
2023-04-02T15:19:11.057Z,87.52
2023-04-02T15:21:55.761Z,87.09
2023-04-02T15:24:37.853Z,87.50
2023-04-02T15:27:31.490Z,87.96
2023-04-02T15:30:12.331Z,87.88
2023-04-02T15:32:40.553Z,88.20
2023-04-02T15:35:21.655Z,88.51
2023-04-02T15:38:18.923Z,89.04
2023-04-02T15:40:54.776Z,89.33
2023-04-02T15:43:42.351Z,89.48
2023-04-02T15:46:23.849Z,89.47
2023-04-02T15:48:59.257Z,90.05
2023-04-02T15:51:26.415Z,89.43
2023-04-02T15:54:26.941Z,89.34
2023-04-02T15:57:11.948Z,89.95
2023-04-02T16:00:23.356Z,89.92
2023-04-02T16:03:18.602Z,90.25
2023-04-02T16:06:10.575Z,89.30
2023-04-02T16:09:07.948Z,89.83
2023-04-02T16:11:34.835Z,89.27
2023-04-02T16:14:16.572Z,89.73
2023-04-02T16:16:46.552Z,89.58
2023-04-02T16:19:35.694Z,89.47
2023-04-02T16:22:28.860Z,89.51
2023-04-02T16:25:16.266Z,90.08
2023-04-02T16:27:52.216Z,89.71
2023-04-02T16:30:27.772Z,90.27
2023-04-02T16:33:00.399Z,89.91
2023-04-02T16:35:53.894Z,90.72
2023-04-02T16:38:39.139Z,90.38
2023-04-02T16:41:18.687Z,89.50
2023-04-02T16:43:51.179Z,89.89
2023-04-02T16:46:39.309Z,90.56
2023-04-02T16:49:14.859Z,90.97
2023-04-02T16:51:52.811Z,90.66
2023-04-02T16:54:35.946Z,90.15
2023-04-02T16:57:20.428Z,90.55
2023-04-02T16:59:53.277Z,90.82
2023-04-02T17:02:46.720Z,90.88
2023-04-02T17:05:33.945Z,91.21
2023-04-02T17:08:08.657Z,90.42
2023-04-02T17:10:48.941Z,90.78
2023-04-02T17:13:21.373Z,90.23
2023-04-02T17:16:03.239Z,90.57
2023-04-02T17:18:30.931Z,90.57
2023-04-02T17:21:03.704Z,90.13
2023-04-02T17:23:31.913Z,90.25
2023-04-02T17:26:05.765Z,90.42
2023-04-02T17:28:37.274Z,90.37
2023-04-02T17:31:15.477Z,89.22
2023-04-02T17:33:41.958Z,89.39
2023-04-02T17:36:38.111Z,88.93
2023-04-02T17:39:25.613Z,89.77
2023-04-02T17:42:19.229Z,90.30
2023-04-02T17:44:48.645Z,89.74
2023-04-02T17:47:21.330Z,90.38
2023-04-02T17:50:29.083Z,89.23
2023-04-02T17:53:08.276Z,89.83
2023-04-02T17:55:47.168Z,89.53
2023-04-02T17:58:39.929Z,90.36
2023-04-02T18:01:25.217Z,89.42
2023-04-02T18:04:16.675Z,89.26
2023-04-02T18:06:58.032Z,89.36
2023-04-02T18:09:42.738Z,89.78
2023-04-02T18:12:31.906Z,90.23
2023-04-02T18:15:28.254Z,89.48
2023-04-02T18:18:30.685Z,89.43
2023-04-02T18:21:23.376Z,90.44
2023-04-02T18:24:26.781Z,90.16
2023-04-02T18:27:27.636Z,90.46
2023-04-02T18:29:58.133Z,90.86
2023-04-02T18:32:50.820Z,90.69
2023-04-02T18:35:47.245Z,90.78
2023-04-02T18:38:36.058Z,90.32
2023-04-02T18:41:08.528Z,90.89
2023-04-02T18:43:46.937Z,90.74
2023-04-02T18:46:48.894Z,91.50
2023-04-02T18:49:23.375Z,91.69
2023-04-02T18:51:54.550Z,91.57
2023-04-02T18:54:42.310Z,91.55
2023-04-02T18:57:13.615Z,91.40
2023-04-02T18:59:42.936Z,90.91
2023-04-02T19:02:40.390Z,91.72
2023-04-02T19:05:25.204Z,91.97
2023-04-02T19:07:59.140Z,90.94
2023-04-02T19:10:46.248Z,90.15
2023-04-02T19:13:18.657Z,90.45
2023-04-02T19:15:54.259Z,90.56
2023-04-02T19:18:54.937Z,90.89
2023-04-02T19:21:46.006Z,90.90
2023-04-02T19:24:24.544Z,90.61
2023-04-02T19:27:01.522Z,90.54
2023-04-02T19:29:40.431Z,90.10
2023-04-02T19:32:40.702Z,90.40
2023-04-02T19:35:36.660Z,90.38
2023-04-02T19:38:15.314Z,90.40
2023-04-02T19:41:07.086Z,90.99
2023-04-02T19:43:33.594Z,90.47
2023-04-02T19:46:02.384Z,90.30
2023-04-02T19:48:44.432Z,90.71
2023-04-02T19:51:10.921Z,90.23
2023-04-02T19:53:37.475Z,90.27
2023-04-02T19:56:04.103Z,90.73
2023-04-02T19:58:32.736Z,89.70
2023-04-02T20:00:59.662Z,89.96
2023-04-02T20:03:26.529Z,90.25
2023-04-02T20:05:53.395Z,89.40
2023-04-02T20:08:20.639Z,89.27
2023-04-02T20:10:47.032Z,88.72
2023-04-02T20:13:13.486Z,88.61
2023-04-02T20:15:40.956Z,88.44
2023-04-02T20:18:07.893Z,88.00
2023-04-02T20:20:34.614Z,87.98
2023-04-02T20:23:01.580Z,87.19
2023-04-02T20:25:28.003Z,86.64
2023-04-02T20:27:54.414Z,86.37
2023-04-02T20:30:20.892Z,86.64
2023-04-02T20:32:47.475Z,86.18
2023-04-02T20:35:14.024Z,85.80
2023-04-02T20:37:41.828Z,86.27
2023-04-02T20:40:09.891Z,85.33
2023-04-02T20:42:36.330Z,85.09
2023-04-02T20:45:05.067Z,85.03
2023-04-02T20:47:31.734Z,84.56
2023-04-02T20:49:58.132Z,85.14
2023-04-02T20:52:24.575Z,84.30
2023-04-02T20:54:50.977Z,83.70
2023-04-02T20:57:19.484Z,84.02
2023-04-02T20:59:45.926Z,84.41
2023-04-02T21:02:12.363Z,84.44
2023-04-02T21:04:38.777Z,84.23
2023-04-02T21:07:05.305Z,84.13
2023-04-02T21:09:32.018Z,83.55
2023-04-02T21:11:58.955Z,83.83
2023-04-02T21:14:26.100Z,83.44
2023-04-02T21:16:52.583Z,83.70
2023-04-02T21:19:18.992Z,83.12
2023-04-02T21:21:45.532Z,84.01
2023-04-02T21:24:11.958Z,83.10
2023-04-02T21:26:40.146Z,83.01
2023-04-02T21:29:07.047Z,83.25
2023-04-02T21:31:38.717Z,82.17
2023-04-02T21:34:06.775Z,82.42
2023-04-02T21:36:36.092Z,82.96
2023-04-02T21:39:05.973Z,83.29
2023-04-02T21:41:35.181Z,83.27
2023-04-02T21:44:03.525Z,82.90
2023-04-02T21:46:31.656Z,83.29
2023-04-02T21:48:59.769Z,82.61
2023-04-02T21:51:29.062Z,83.10
2023-04-02T21:53:56.134Z,82.86
2023-04-02T21:56:28.559Z,82.77
2023-04-02T21:59:01.748Z,82.68
2023-04-02T22:01:31.136Z,82.47
2023-04-02T22:04:00.685Z,82.76
2023-04-02T22:06:29.736Z,82.92
2023-04-02T22:08:58.907Z,82.85
2023-04-02T22:11:29.524Z,82.36
2023-04-02T22:13:56.226Z,82.57
2023-04-02T22:16:25.251Z,82.54
2023-04-02T22:18:53.312Z,82.76
2023-04-02T22:21:20.778Z,82.61
2023-04-02T22:23:48.324Z,82.37
2023-04-02T22:26:16.178Z,82.29
2023-04-02T22:28:42.625Z,81.96
2023-04-02T22:31:12.401Z,82.14
2023-04-02T22:33:39.252Z,82.46
2023-04-02T22:36:06.030Z,82.34
2023-04-02T22:38:33.615Z,82.77
2023-04-02T22:41:11.164Z,82.08
2023-04-02T22:43:39.043Z,82.69
2023-04-02T22:46:07.832Z,81.76
2023-04-02T22:48:35.470Z,82.04
2023-04-02T22:51:02.551Z,82.41
2023-04-02T22:53:29.463Z,81.36
2023-04-02T22:56:01.722Z,81.81
2023-04-02T22:58:28.152Z,81.42
2023-04-02T23:00:54.541Z,82.38
2023-04-02T23:03:21.437Z,81.64
2023-04-02T23:05:58.849Z,81.97
2023-04-02T23:08:25.534Z,81.93
2023-04-02T23:10:51.974Z,81.42
2023-04-02T23:13:18.438Z,81.30
2023-04-02T23:15:44.898Z,81.15
2023-04-02T23:18:11.455Z,81.41
2023-04-02T23:20:38.095Z,81.28
2023-04-02T23:23:04.743Z,81.12
2023-04-02T23:25:31.176Z,81.54
2023-04-02T23:27:57.593Z,81.25
2023-04-02T23:30:23.986Z,79.91
2023-04-02T23:32:50.704Z,80.28
2023-04-02T23:35:17.128Z,80.59
2023-04-02T23:37:43.522Z,80.52
2023-04-02T23:40:10.301Z,80.37
2023-04-02T23:42:36.704Z,80.03
2023-04-02T23:45:03.259Z,80.20
2023-04-02T23:47:29.732Z,79.90
2023-04-02T23:49:56.223Z,80.00
2023-04-02T23:52:22.633Z,79.62
2023-04-02T23:54:49.046Z,79.00
2023-04-02T23:57:17.202Z,79.33
2023-04-02T23:59:43.626Z,78.99
